sensor_id;sensor_type;location;lat;lon;timestamp;pressure;altitude;pressure_sealevel;temperature;humidity
26859;BME280;14429;48.346;16.338;2023-05-20T00:01:52;100283.75;;;16.56;63.49
26859;BME280;14429;48.346;16.338;2023-05-20T00:04:17;100282.72;;;16.68;62.98
26859;BME280;14429;48.346;16.338;2023-05-20T00:06:42;100294.44;;;16.78;62.79
26859;BME280;14429;48.346;16.338;2023-05-20T00:09:09;100290.97;;;16.87;62.52
26859;BME280;14429;48.346;16.338;2023-05-20T00:11:35;100300.78;;;16.88;62.31
26859;BME280;14429;48.346;16.338;2023-05-20T00:14:00;100297.03;;;16.99;62.02
26859;BME280;14429;48.346;16.338;2023-05-20T00:16:25;100287.56;;;17.05;61.65
26859;BME280;14429;48.346;16.338;2023-05-20T00:18:51;100280.31;;;17.05;61.58
26859;BME280;14429;48.346;16.338;2023-05-20T00:21:16;100289.56;;;17.03;61.46
26859;BME280;14429;48.346;16.338;2023-05-20T00:23:42;100284.75;;;17.06;61.54
26859;BME280;14429;48.346;16.338;2023-05-20T00:26:09;100287.56;;;17.05;61.37
26859;BME280;14429;48.346;16.338;2023-05-20T00:28:35;100281.09;;;17.07;61.36
26859;BME280;14429;48.346;16.338;2023-05-20T00:31:00;100287.56;;;17.05;61.48
26859;BME280;14429;48.346;16.338;2023-05-20T00:33:26;100284.75;;;17.06;61.23
26859;BME280;14429;48.346;16.338;2023-05-20T00:35:51;100280.31;;;17.05;61.47
26859;BME280;14429;48.346;16.338;2023-05-20T00:38:17;100272.53;;;17.02;61.57
26859;BME280;14429;48.346;16.338;2023-05-20T00:40:42;100276.28;;;16.91;61.59
26859;BME280;14429;48.346;16.338;2023-05-20T00:43:09;100270.41;;;16.86;61.94
26859;BME280;14429;48.346;16.338;2023-05-20T00:45:35;100274.44;;;16.91;61.81
26859;BME280;14429;48.346;16.338;2023-05-20T00:48:02;100271.34;;;16.96;61.63
26859;BME280;14429;48.346;16.338;2023-05-20T00:50:27;100266.28;;;17.02;61.52
26859;BME280;14429;48.346;16.338;2023-05-20T00:52:53;100255.50;;;17.02;61.33
26859;BME280;14429;48.346;16.338;2023-05-20T00:55:19;100254.63;;;17.01;61.21
26859;BME280;14429;48.346;16.338;2023-05-20T00:57:44;100255.78;;;16.99;61.43
26859;BME280;14429;48.346;16.338;2023-05-20T01:00:12;100264.84;;;16.98;61.33
26859;BME280;14429;48.346;16.338;2023-05-20T01:02:38;100263.44;;;17.03;61.24
26859;BME280;14429;48.346;16.338;2023-05-20T01:05:04;100260.41;;;17.08;61.02
26859;BME280;14429;48.346;16.338;2023-05-20T01:07:29;100256.06;;;17.05;61.20
26859;BME280;14429;48.346;16.338;2023-05-20T01:09:55;100255.13;;;17.06;61.11
26859;BME280;14429;48.346;16.338;2023-05-20T01:12:23;100258.78;;;17.05;61.14
26859;BME280;14429;48.346;16.338;2023-05-20T01:14:55;100255.22;;;17.05;61.03
26859;BME280;14429;48.346;16.338;2023-05-20T01:17:25;100250.13;;;17.02;60.99
26859;BME280;14429;48.346;16.338;2023-05-20T01:19:53;100243.84;;;17.01;60.85
26859;BME280;14429;48.346;16.338;2023-05-20T01:22:23;100241.16;;;17.01;61.14
26859;BME280;14429;48.346;16.338;2023-05-20T01:24:49;100244.13;;;16.99;61.09
26859;BME280;14429;48.346;16.338;2023-05-20T01:27:14;100248.09;;;16.95;61.18
26859;BME280;14429;48.346;16.338;2023-05-20T01:29:41;100255.88;;;16.98;61.29
26859;BME280;14429;48.346;16.338;2023-05-20T01:32:10;100245.38;;;16.95;61.35
26859;BME280;14429;48.346;16.338;2023-05-20T01:34:37;100241.25;;;16.91;61.50
26859;BME280;14429;48.346;16.338;2023-05-20T01:37:05;100243.66;;;16.94;61.19
26859;BME280;14429;48.346;16.338;2023-05-20T01:39:35;100238.56;;;16.91;61.26
26859;BME280;14429;48.346;16.338;2023-05-20T01:42:01;100235.13;;;16.89;61.44
26859;BME280;14429;48.346;16.338;2023-05-20T01:44:27;100245.16;;;16.87;61.39
26859;BME280;14429;48.346;16.338;2023-05-20T01:46:53;100243.34;;;16.87;61.57
26859;BME280;14429;48.346;16.338;2023-05-20T01:49:18;100233.03;;;16.92;61.31
26859;BME280;14429;48.346;16.338;2023-05-20T01:51:44;100235.88;;;16.91;61.42
26859;BME280;14429;48.346;16.338;2023-05-20T01:54:09;100233.88;;;16.93;61.36
26859;BME280;14429;48.346;16.338;2023-05-20T01:56:36;100234.63;;;16.95;61.20
26859;BME280;14429;48.346;16.338;2023-05-20T01:59:01;100237.16;;;16.96;61.08
26859;BME280;14429;48.346;16.338;2023-05-20T02:01:27;100231.63;;;16.98;61.19
26859;BME280;14429;48.346;16.338;2023-05-20T02:03:52;100230.19;;;16.94;61.07
26859;BME280;14429;48.346;16.338;2023-05-20T02:06:18;100224.78;;;16.94;61.18
26859;BME280;14429;48.346;16.338;2023-05-20T02:08:43;100226.91;;;16.90;61.50
26859;BME280;14429;48.346;16.338;2023-05-20T02:11:09;100232.53;;;16.67;61.36
26859;BME280;14429;48.346;16.338;2023-05-20T02:13:35;100231.25;;;16.82;61.61
26859;BME280;14429;48.346;16.338;2023-05-20T02:16:01;100230.72;;;16.88;61.43
26859;BME280;14429;48.346;16.338;2023-05-20T02:18:26;100231.44;;;16.90;61.36
26859;BME280;14429;48.346;16.338;2023-05-20T02:20:51;100234.13;;;16.90;61.14
26859;BME280;14429;48.346;16.338;2023-05-20T02:23:17;100224.09;;;16.92;61.27
26859;BME280;14429;48.346;16.338;2023-05-20T02:25:43;100231.91;;;16.95;61.11
26859;BME280;14429;48.346;16.338;2023-05-20T02:28:08;100228.94;;;16.98;61.06
26859;BME280;14429;48.346;16.338;2023-05-20T02:30:35;100234.63;;;16.95;61.23
26859;BME280;14429;48.346;16.338;2023-05-20T02:33:01;100236.63;;;16.82;61.35
26859;BME280;14429;48.346;16.338;2023-05-20T02:35:26;100235.28;;;16.87;61.42
26859;BME280;14429;48.346;16.338;2023-05-20T02:37:51;100244.66;;;16.93;61.10
26859;BME280;14429;48.346;16.338;2023-05-20T02:40:17;100236.81;;;16.90;61.27
26859;BME280;14429;48.346;16.338;2023-05-20T02:42:42;100235.38;;;16.86;61.35
26859;BME280;14429;48.346;16.338;2023-05-20T02:45:08;100239.00;;;16.96;61.02
26859;BME280;14429;48.346;16.338;2023-05-20T02:47:35;100234.22;;;16.99;60.88
26859;BME280;14429;48.346;16.338;2023-05-20T02:50:01;100233.38;;;16.99;60.97
26859;BME280;14429;48.346;16.338;2023-05-20T02:52:27;100228.81;;;16.99;60.80
26859;BME280;14429;48.346;16.338;2023-05-20T02:54:52;100237.75;;;16.99;60.75
26859;BME280;14429;48.346;16.338;2023-05-20T02:57:17;100239.72;;;16.98;60.80
26859;BME280;14429;48.346;16.338;2023-05-20T02:59:43;100240.97;;;16.94;61.00
26859;BME280;14429;48.346;16.338;2023-05-20T03:02:08;100234.72;;;16.93;60.99
26859;BME280;14429;48.346;16.338;2023-05-20T03:04:35;100237.56;;;16.92;61.05
26859;BME280;14429;48.346;16.338;2023-05-20T03:07:00;100224.78;;;16.94;60.89
26859;BME280;14429;48.346;16.338;2023-05-20T03:09:27;100233.63;;;16.96;60.68
26859;BME280;14429;48.346;16.338;2023-05-20T03:11:52;100230.19;;;16.94;60.76
26859;BME280;14429;48.346;16.338;2023-05-20T03:14:18;100233.63;;;16.96;60.80
26859;BME280;14429;48.346;16.338;2023-05-20T03:16:43;100237.16;;;16.96;60.74
26859;BME280;14429;48.346;16.338;2023-05-20T03:19:09;100242.94;;;16.92;61.00
26859;BME280;14429;48.346;16.338;2023-05-20T03:21:35;100233.88;;;16.93;60.78
26859;BME280;14429;48.346;16.338;2023-05-20T03:24:01;100228.50;;;16.93;60.78
26859;BME280;14429;48.346;16.338;2023-05-20T03:26:26;100238.00;;;16.97;60.77
26859;BME280;14429;48.346;16.338;2023-05-20T03:28:52;100245.25;;;16.96;60.43
26859;BME280;14429;48.346;16.338;2023-05-20T03:31:17;100242.69;;;16.95;60.62
26859;BME280;14429;48.346;16.338;2023-05-20T03:33:42;100247.50;;;16.91;60.91
26859;BME280;14429;48.346;16.338;2023-05-20T03:36:08;100250.28;;;16.90;60.85
26859;BME280;14429;48.346;16.338;2023-05-20T03:38:34;100253.00;;;16.90;60.88
26859;BME280;14429;48.346;16.338;2023-05-20T03:41:00;100255.28;;;16.94;60.75
26859;BME280;14429;48.346;16.338;2023-05-20T03:43:26;100256.28;;;16.93;60.68
26859;BME280;14429;48.346;16.338;2023-05-20T03:45:51;100269.31;;;16.88;60.81
26859;BME280;14429;48.346;16.338;2023-05-20T03:48:17;100265.28;;;16.83;61.05
26859;BME280;14429;48.346;16.338;2023-05-20T03:50:42;100266.47;;;16.90;60.90
26859;BME280;14429;48.346;16.338;2023-05-20T03:53:07;100262.81;;;16.91;60.81
26859;BME280;14429;48.346;16.338;2023-05-20T03:55:35;100273.28;;;16.94;60.67
26859;BME280;14429;48.346;16.338;2023-05-20T03:58:00;100264.50;;;16.92;60.68
26859;BME280;14429;48.346;16.338;2023-05-20T04:00:26;100274.28;;;16.93;60.68
26859;BME280;14429;48.346;16.338;2023-05-20T04:02:51;100273.84;;;16.88;60.79
26859;BME280;14429;48.346;16.338;2023-05-20T04:05:17;100263.91;;;16.88;60.81
26859;BME280;14429;48.346;16.338;2023-05-20T04:07:42;100263.56;;;16.82;60.93
26859;BME280;14429;48.346;16.338;2023-05-20T04:10:08;100248.53;;;16.79;60.98
26859;BME280;14429;48.346;16.338;2023-05-20T04:12:36;100256.47;;;16.81;60.92
26859;BME280;14429;48.346;16.338;2023-05-20T04:15:02;100257.19;;;16.63;60.43
26859;BME280;14429;48.346;16.338;2023-05-20T04:17:27;100254.03;;;16.78;61.21
26859;BME280;14429;48.346;16.338;2023-05-20T04:19:53;100243.16;;;16.79;61.02
26859;BME280;14429;48.346;16.338;2023-05-20T04:22:19;100244.59;;;16.83;61.03
26859;BME280;14429;48.346;16.338;2023-05-20T04:24:44;100259.88;;;16.83;60.82
26859;BME280;14429;48.346;16.338;2023-05-20T04:27:10;100265.28;;;16.83;60.94
26859;BME280;14429;48.346;16.338;2023-05-20T04:29:36;100264.16;;;16.85;60.86
26859;BME280;14429;48.346;16.338;2023-05-20T04:32:02;100266.47;;;16.90;60.78
26859;BME280;14429;48.346;16.338;2023-05-20T04:34:28;100264.84;;;16.98;60.53
26859;BME280;14429;48.346;16.338;2023-05-20T04:36:54;100277.31;;;16.99;60.28
26859;BME280;14429;48.346;16.338;2023-05-20T04:39:19;100274.75;;;16.98;60.31
26859;BME280;14429;48.346;16.338;2023-05-20T04:41:45;100278.19;;;16.99;60.34
26859;BME280;14429;48.346;16.338;2023-05-20T04:44:10;100278.69;;;16.94;60.47
26859;BME280;14429;48.346;16.338;2023-05-20T04:46:37;100277.00;;;16.93;60.66
26859;BME280;14429;48.346;16.338;2023-05-20T04:49:02;100282.63;;;16.90;60.66
26859;BME280;14429;48.346;16.338;2023-05-20T04:51:28;100290.59;;;16.91;60.58
26859;BME280;14429;48.346;16.338;2023-05-20T04:53:53;100285.06;;;16.93;60.48
26859;BME280;14429;48.346;16.338;2023-05-20T04:56:18;100289.22;;;16.97;60.35
26859;BME280;14429;48.346;16.338;2023-05-20T04:58:44;100287.25;;;16.99;60.21
26859;BME280;14429;48.346;16.338;2023-05-20T05:01:09;100293.25;;;17.02;60.06
26859;BME280;14429;48.346;16.338;2023-05-20T05:03:36;100283.81;;;16.97;60.34
26859;BME280;14429;48.346;16.338;2023-05-20T05:06:02;100289.81;;;17.00;60.27
26859;BME280;14429;48.346;16.338;2023-05-20T05:08:27;100292.09;;;17.04;59.90
26859;BME280;14429;48.346;16.338;2023-05-20T05:10:53;100289.41;;;17.04;59.98
26859;BME280;14429;48.346;16.338;2023-05-20T05:13:18;100276.56;;;17.08;59.90
26859;BME280;14429;48.346;16.338;2023-05-20T05:15:44;100263.94;;;17.08;59.88
26859;BME280;14429;48.346;16.338;2023-05-20T05:18:09;100261.97;;;17.10;59.94
26859;BME280;14429;48.346;16.338;2023-05-20T05:20:36;100264.13;;;17.16;59.75
26859;BME280;14429;48.346;16.338;2023-05-20T05:23:02;100271.97;;;17.19;59.61
26859;BME280;14429;48.346;16.338;2023-05-20T05:25:27;100270.19;;;17.29;59.19
26859;BME280;14429;48.346;16.338;2023-05-20T05:27:53;100286.28;;;17.20;59.34
26859;BME280;14429;48.346;16.338;2023-05-20T05:30:18;100277.16;;;17.11;59.70
26859;BME280;14429;48.346;16.338;2023-05-20T05:32:43;100268.25;;;17.20;59.52
26859;BME280;14429;48.346;16.338;2023-05-20T05:35:09;100266.72;;;17.18;59.60
26859;BME280;14429;48.346;16.338;2023-05-20T05:37:36;100266.84;;;17.05;59.83
26859;BME280;14429;48.346;16.338;2023-05-20T05:40:01;100263.19;;;17.06;60.04
26859;BME280;14429;48.346;16.338;2023-05-20T05:42:27;100266.41;;;17.00;60.23
26859;BME280;14429;48.346;16.338;2023-05-20T05:44:52;100263.94;;;17.08;60.15
26859;BME280;14429;48.346;16.338;2023-05-20T05:47:17;100276.25;;;17.22;59.54
26859;BME280;14429;48.346;16.338;2023-05-20T05:49:43;100277.81;;;17.24;59.68
26859;BME280;14429;48.346;16.338;2023-05-20T05:52:08;100278.50;;;17.46;60.30
26859;BME280;14429;48.346;16.338;2023-05-20T05:54:35;100282.34;;;17.44;59.13
26859;BME280;14429;48.346;16.338;2023-05-20T05:57:00;100274.00;;;17.47;58.93
26859;BME280;14429;48.346;16.338;2023-05-20T05:59:26;100280.28;;;17.56;58.73
26859;BME280;14429;48.346;16.338;2023-05-20T06:01:51;100278.81;;;17.53;58.85
26859;BME280;14429;48.346;16.338;2023-05-20T06:04:17;100285.03;;;17.44;58.92
26859;BME280;14429;48.346;16.338;2023-05-20T06:06:42;100285.56;;;17.67;59.88
26859;BME280;14429;48.346;16.338;2023-05-20T06:09:07;100281.78;;;17.70;58.57
26859;BME280;14429;48.346;16.338;2023-05-20T06:11:34;100272.34;;;17.64;58.37
26859;BME280;14429;48.346;16.338;2023-05-20T06:14:00;100268.09;;;17.62;58.67
26859;BME280;14429;48.346;16.338;2023-05-20T06:16:25;100276.41;;;17.79;58.65
26859;BME280;14429;48.346;16.338;2023-05-20T06:18:51;100264.91;;;18.07;60.77
26859;BME280;14429;48.346;16.338;2023-05-20T06:21:16;100266.16;;;18.03;58.21
26859;BME280;14429;48.346;16.338;2023-05-20T06:23:42;100262.97;;;18.46;59.38
26859;BME280;14429;48.346;16.338;2023-05-20T06:26:07;100253.34;;;18.81;58.65
26859;BME280;14429;48.346;16.338;2023-05-20T06:28:34;100256.13;;;18.23;56.84
26859;BME280;14429;48.346;16.338;2023-05-20T06:30:59;100253.59;;;18.68;57.62
26859;BME280;14429;48.346;16.338;2023-05-20T06:33:26;100242.94;;;18.95;57.33
26859;BME280;14429;48.346;16.338;2023-05-20T06:35:51;100252.19;;;19.11;57.58
26859;BME280;14429;48.346;16.338;2023-05-20T06:38:17;100238.19;;;19.25;57.33
26859;BME280;14429;48.346;16.338;2023-05-20T06:40:42;100256.47;;;18.95;55.76
26859;BME280;14429;48.346;16.338;2023-05-20T06:43:08;100249.34;;;18.85;55.36
26859;BME280;14429;48.346;16.338;2023-05-20T06:45:34;100253.03;;;19.12;57.79
26859;BME280;14429;48.346;16.338;2023-05-20T06:48:00;100259.03;;;19.06;55.28
26859;BME280;14429;48.346;16.338;2023-05-20T06:50:25;100259.03;;;18.78;55.17
26859;BME280;14429;48.346;16.338;2023-05-20T06:52:51;100259.59;;;18.63;55.68
26859;BME280;14429;48.346;16.338;2023-05-20T06:55:16;100250.47;;;18.63;55.64
26859;BME280;14429;48.346;16.338;2023-05-20T06:57:42;100252.44;;;18.62;55.67
26859;BME280;14429;48.346;16.338;2023-05-20T07:00:08;100261.00;;;18.57;56.48
26859;BME280;14429;48.346;16.338;2023-05-20T07:02:35;100256.28;;;18.50;56.23
26859;BME280;14429;48.346;16.338;2023-05-20T07:05:00;100249.13;;;18.21;56.86
26859;BME280;14429;48.346;16.338;2023-05-20T07:07:26;100241.59;;;18.24;56.78
26859;BME280;14429;48.346;16.338;2023-05-20T07:09:51;100249.34;;;18.57;60.33
26859;BME280;14429;48.346;16.338;2023-05-20T07:12:17;100238.50;;;18.38;57.39
26859;BME280;14429;48.346;16.338;2023-05-20T07:14:42;100239.09;;;18.32;57.63
26859;BME280;14429;48.346;16.338;2023-05-20T07:17:08;100238.50;;;18.38;57.09
26859;BME280;14429;48.346;16.338;2023-05-20T07:19:35;100245.91;;;18.36;57.44
26859;BME280;14429;48.346;16.338;2023-05-20T07:22:00;100244.50;;;18.60;61.25
26859;BME280;14429;48.346;16.338;2023-05-20T07:24:25;100234.25;;;18.82;60.94
26859;BME280;14429;48.346;16.338;2023-05-20T07:26:51;100244.22;;;18.54;57.45
26859;BME280;14429;48.346;16.338;2023-05-20T07:29:16;100237.81;;;18.36;57.21
26859;BME280;14429;48.346;16.338;2023-05-20T07:31:42;100234.09;;;18.18;57.32
26859;BME280;14429;48.346;16.338;2023-05-20T07:34:07;100233.03;;;18.01;57.68
26859;BME280;14429;48.346;16.338;2023-05-20T07:36:34;100223.34;;;17.98;57.89
26859;BME280;14429;48.346;16.338;2023-05-20T07:39:00;100229.03;;;17.95;58.05
26859;BME280;14429;48.346;16.338;2023-05-20T07:41:25;100229.13;;;18.23;61.67
26859;BME280;14429;48.346;16.338;2023-05-20T07:43:51;100222.88;;;18.32;60.98
26859;BME280;14429;48.346;16.338;2023-05-20T07:46:16;100217.75;;;18.29;58.93
26859;BME280;14429;48.346;16.338;2023-05-20T07:48:41;100224.00;;;18.39;61.35
26859;BME280;14429;48.346;16.338;2023-05-20T07:51:07;100220.34;;;18.40;61.42
26859;BME280;14429;48.346;16.338;2023-05-20T07:53:34;100220.03;;;18.52;63.06
26859;BME280;14429;48.346;16.338;2023-05-20T07:55:59;100220.34;;;18.59;62.88
26859;BME280;14429;48.346;16.338;2023-05-20T07:58:25;100216.91;;;18.57;60.16
26859;BME280;14429;48.346;16.338;2023-05-20T08:00:51;100221.75;;;18.63;61.21
26859;BME280;14429;48.346;16.338;2023-05-20T08:03:16;100217.31;;;18.62;59.87
26859;BME280;14429;48.346;16.338;2023-05-20T08:05:42;100220.91;;;18.71;61.54
26859;BME280;14429;48.346;16.338;2023-05-20T08:08:07;100219.06;;;18.81;63.09
26859;BME280;14429;48.346;16.338;2023-05-20T08:10:34;100204.69;;;18.90;62.45
26859;BME280;14429;48.346;16.338;2023-05-20T08:13:00;100213.50;;;19.01;62.99
26859;BME280;14429;48.346;16.338;2023-05-20T08:15:25;100209.22;;;18.99;62.02
26859;BME280;14429;48.346;16.338;2023-05-20T08:17:50;100210.06;;;19.09;63.01
26859;BME280;14429;48.346;16.338;2023-05-20T08:20:16;100212.63;;;18.82;58.31
26859;BME280;14429;48.346;16.338;2023-05-20T08:22:41;100201.31;;;18.88;60.41
26859;BME280;14429;48.346;16.338;2023-05-20T08:25:08;100198.69;;;19.15;62.47
26859;BME280;14429;48.346;16.338;2023-05-20T08:27:35;100188.44;;;19.09;62.09
26859;BME280;14429;48.346;16.338;2023-05-20T08:30:01;100182.06;;;19.36;62.96
26859;BME280;14429;48.346;16.338;2023-05-20T08:32:26;100182.28;;;19.25;62.45
26859;BME280;14429;48.346;16.338;2023-05-20T08:34:52;100181.31;;;19.08;59.18
26859;BME280;14429;48.346;16.338;2023-05-20T08:37:17;100175.31;;;19.23;62.65
26859;BME280;14429;48.346;16.338;2023-05-20T08:39:42;100179.31;;;19.10;60.46
26859;BME280;14429;48.346;16.338;2023-05-20T08:42:08;100170.72;;;19.33;63.37
26859;BME280;14429;48.346;16.338;2023-05-20T08:44:35;100168.97;;;19.41;63.61
26859;BME280;14429;48.346;16.338;2023-05-20T08:47:01;100167.84;;;19.34;62.36
26859;BME280;14429;48.346;16.338;2023-05-20T08:49:27;100168.41;;;19.38;63.68
26859;BME280;14429;48.346;16.338;2023-05-20T08:51:52;100166.66;;;19.46;64.07
26859;BME280;14429;48.346;16.338;2023-05-20T08:54:20;100156.03;;;19.62;64.25
26859;BME280;14429;48.346;16.338;2023-05-20T08:56:46;100165.53;;;19.39;60.18
26859;BME280;14429;48.346;16.338;2023-05-20T08:59:12;100161.44;;;19.62;63.58
26859;BME280;14429;48.346;16.338;2023-05-20T09:01:40;100159.47;;;19.64;62.97
26859;BME280;14429;48.346;16.338;2023-05-20T09:04:06;100160.75;;;19.33;59.41
26859;BME280;14429;48.346;16.338;2023-05-20T09:06:41;100156.75;;;19.37;58.76
26859;BME280;14429;48.346;16.338;2023-05-20T09:09:06;100160.22;;;19.20;57.00
26859;BME280;14429;48.346;16.338;2023-05-20T09:11:32;100163.56;;;18.96;56.31
26859;BME280;14429;48.346;16.338;2023-05-20T09:13:58;100153.13;;;19.46;65.12
26859;BME280;14429;48.346;16.338;2023-05-20T09:16:24;100154.06;;;19.54;63.26
26859;BME280;14429;48.346;16.338;2023-05-20T09:18:54;100142.94;;;19.31;59.29
26859;BME280;14429;48.346;16.338;2023-05-20T09:21:25;100145.44;;;19.06;56.62
26859;BME280;14429;48.346;16.338;2023-05-20T09:23:50;100137.91;;;19.45;63.89
26859;BME280;14429;48.346;16.338;2023-05-20T09:26:16;100133.91;;;19.75;64.20
26859;BME280;14429;48.346;16.338;2023-05-20T09:28:42;100133.78;;;19.94;64.70
26859;BME280;14429;48.346;16.338;2023-05-20T09:31:07;100129.09;;;19.96;64.07
26859;BME280;14429;48.346;16.338;2023-05-20T09:33:33;100132.03;;;19.85;62.02
26859;BME280;14429;48.346;16.338;2023-05-20T09:36:04;100131.47;;;19.99;64.11
26859;BME280;14429;48.346;16.338;2023-05-20T09:38:35;100130.94;;;20.13;64.10
26859;BME280;14429;48.346;16.338;2023-05-20T09:41:02;100138.03;;;19.79;57.92
26859;BME280;14429;48.346;16.338;2023-05-20T09:43:30;100136.88;;;19.99;64.17
26859;BME280;14429;48.346;16.338;2023-05-20T09:45:56;100130.16;;;19.86;58.41
26859;BME280;14429;48.346;16.338;2023-05-20T09:48:22;100126.69;;;20.27;64.66
26859;BME280;14429;48.346;16.338;2023-05-20T09:50:49;100125.06;;;20.34;62.60
26859;BME280;14429;48.346;16.338;2023-05-20T09:53:16;100121.97;;;20.47;61.86
26859;BME280;14429;48.346;16.338;2023-05-20T09:55:42;100123.34;;;19.55;55.52
26859;BME280;14429;48.346;16.338;2023-05-20T09:58:08;100125.38;;;20.31;58.19
26859;BME280;14429;48.346;16.338;2023-05-20T10:00:34;100116.25;;;20.32;63.06
26859;BME280;14429;48.346;16.338;2023-05-20T10:03:00;100117.25;;;20.31;60.57
26859;BME280;14429;48.346;16.338;2023-05-20T10:05:27;100123.59;;;20.40;58.01
26859;BME280;14429;48.346;16.338;2023-05-20T10:08:27;100117.63;;;20.71;63.38
26859;BME280;14429;48.346;16.338;2023-05-20T10:11:03;100110.38;;;20.54;54.98
26859;BME280;14429;48.346;16.338;2023-05-20T10:13:42;100103.78;;;20.81;61.22
26859;BME280;14429;48.346;16.338;2023-05-20T10:16:16;100101.56;;;20.52;58.87
26859;BME280;14429;48.346;16.338;2023-05-20T10:18:53;100093.66;;;20.83;61.56
26859;BME280;14429;48.346;16.338;2023-05-20T10:21:22;100097.84;;;21.03;62.01
26859;BME280;14429;48.346;16.338;2023-05-20T10:23:50;100095.13;;;21.61;59.68
26859;BME280;14429;48.346;16.338;2023-05-20T10:26:16;100093.06;;;21.63;58.44
26859;BME280;14429;48.346;16.338;2023-05-20T10:28:42;100078.63;;;21.55;57.61
26859;BME280;14429;48.346;16.338;2023-05-20T10:31:15;100086.69;;;21.80;59.03
26859;BME280;14429;48.346;16.338;2023-05-20T10:33:41;100079.66;;;21.62;58.21
26859;BME280;14429;48.346;16.338;2023-05-20T10:36:07;100072.63;;;21.35;56.08
26859;BME280;14429;48.346;16.338;2023-05-20T10:38:35;100073.31;;;21.37;57.59
26859;BME280;14429;48.346;16.338;2023-05-20T10:41:08;100068.72;;;21.87;58.75
26859;BME280;14429;48.346;16.338;2023-05-20T10:43:33;100056.78;;;21.72;58.00
26859;BME280;14429;48.346;16.338;2023-05-20T10:45:59;100065.09;;;21.78;58.17
26859;BME280;14429;48.346;16.338;2023-05-20T10:48:26;100064.47;;;22.00;58.40
26859;BME280;14429;48.346;16.338;2023-05-20T10:50:54;100055.84;;;22.04;58.37
26859;BME280;14429;48.346;16.338;2023-05-20T10:53:21;100049.75;;;22.34;57.56
26859;BME280;14429;48.346;16.338;2023-05-20T10:55:48;100052.16;;;22.21;57.38
26859;BME280;14429;48.346;16.338;2023-05-20T10:58:15;100039.91;;;22.25;58.48
26859;BME280;14429;48.346;16.338;2023-05-20T11:00:41;100039.38;;;22.45;58.26
26859;BME280;14429;48.346;16.338;2023-05-20T11:03:08;100038.53;;;22.44;57.22
26859;BME280;14429;48.346;16.338;2023-05-20T11:05:34;100033.81;;;22.39;57.98
26859;BME280;14429;48.346;16.338;2023-05-20T11:08:00;100030.41;;;22.21;54.38
26859;BME280;14429;48.346;16.338;2023-05-20T11:10:26;100031.56;;;22.34;57.85
26859;BME280;14429;48.346;16.338;2023-05-20T11:12:51;100025.97;;;22.51;58.24
26859;BME280;14429;48.346;16.338;2023-05-20T11:15:18;100032.03;;;21.90;54.58
26859;BME280;14429;48.346;16.338;2023-05-20T11:17:51;100020.50;;;21.96;54.81
26859;BME280;14429;48.346;16.338;2023-05-20T11:20:17;100010.34;;;22.06;53.30
26859;BME280;14429;48.346;16.338;2023-05-20T11:22:43;100012.69;;;22.48;59.51
26859;BME280;14429;48.346;16.338;2023-05-20T11:25:09;100010.16;;;22.47;57.23
26859;BME280;14429;48.346;16.338;2023-05-20T11:27:38;100014.53;;;22.87;57.50
26859;BME280;14429;48.346;16.338;2023-05-20T11:30:04;100011.63;;;22.89;56.76
26859;BME280;14429;48.346;16.338;2023-05-20T11:32:31;100012.38;;;22.51;53.09
26859;BME280;14429;48.346;16.338;2023-05-20T11:34:57;100010.91;;;23.02;57.00
26859;BME280;14429;48.346;16.338;2023-05-20T11:37:23;100020.34;;;22.37;56.03
26859;BME280;14429;48.346;16.338;2023-05-20T11:39:48;100023.59;;;22.17;55.67
26859;BME280;14429;48.346;16.338;2023-05-20T11:42:26;100008.25;;;22.00;51.62
26859;BME280;14429;48.346;16.338;2023-05-20T11:44:52;100013.53;;;22.65;55.96
26859;BME280;14429;48.346;16.338;2023-05-20T11:47:23;100009.59;;;22.75;54.80
26859;BME280;14429;48.346;16.338;2023-05-20T11:49:50;100014.03;;;22.84;55.04
26859;BME280;14429;48.346;16.338;2023-05-20T11:52:15;100006.84;;;22.98;54.16
26859;BME280;14429;48.346;16.338;2023-05-20T11:54:41;100009.09;;;22.87;52.82
26859;BME280;14429;48.346;16.338;2023-05-20T11:57:06;99997.88;;;22.90;54.07
26859;BME280;14429;48.346;16.338;2023-05-20T11:59:32;99994.47;;;22.88;52.40
26859;BME280;14429;48.346;16.338;2023-05-20T12:01:57;99992.22;;;22.99;53.22
26859;BME280;14429;48.346;16.338;2023-05-20T12:04:23;99987.44;;;23.09;53.54
26859;BME280;14429;48.346;16.338;2023-05-20T12:06:49;99989.03;;;23.26;52.55
26859;BME280;14429;48.346;16.338;2023-05-20T12:09:15;99991.88;;;23.40;50.73
26859;BME280;14429;48.346;16.338;2023-05-20T12:11:40;99995.44;;;23.71;51.14
26859;BME280;14429;48.346;16.338;2023-05-20T12:14:06;99997.22;;;23.86;51.32
26859;BME280;14429;48.346;16.338;2023-05-20T12:16:33;99992.28;;;23.59;49.82
26859;BME280;14429;48.346;16.338;2023-05-20T12:18:59;99993.03;;;23.53;50.16
26859;BME280;14429;48.346;16.338;2023-05-20T12:21:24;99992.28;;;23.59;50.28
26859;BME280;14429;48.346;16.338;2023-05-20T12:23:51;99988.91;;;23.57;50.09
26859;BME280;14429;48.346;16.338;2023-05-20T12:26:17;99986.22;;;23.42;51.02
26859;BME280;14429;48.346;16.338;2023-05-20T12:28:42;99986.63;;;23.31;50.36
26859;BME280;14429;48.346;16.338;2023-05-20T12:31:08;99982.44;;;23.58;51.49
26859;BME280;14429;48.346;16.338;2023-05-20T12:33:33;99976.63;;;23.61;50.46
26859;BME280;14429;48.346;16.338;2023-05-20T12:35:59;99969.84;;;24.02;48.85